Time;durP1;ratioP1;P1;durP2;ratioP2;P2;SDS_P1;SDS_P2;PMS_P1;PMS_P2;Temp;Humidity;BMP_temperature;BMP_pressure;BME280_temperature;BME280_humidity;BME280_pressure;Samples;Min_cycle;Max_cycle;Signal;HPM_P1;HPM_P2
2021/07/17 00:02:17;;;;;;;8.73;3.92;;;21.00;73.00;;;;;;5096729;28;20115;-73
2021/07/17 00:04:44;;;;;;;8.70;3.25;;;21.00;73.00;;;;;;5096902;28;20382;-72
2021/07/17 00:07:10;;;;;;;6.40;3.60;;;21.00;73.00;;;;;;5096248;28;20424;-73
2021/07/17 00:09:36;;;;;;;7.43;3.40;;;21.00;73.00;;;;;;5096226;28;20419;-73
2021/07/17 00:12:04;;;;;;;8.05;3.90;;;21.00;73.00;;;;;;5096502;28;20132;-72
2021/07/17 00:14:30;;;;;;;6.90;3.72;;;21.00;73.00;;;;;;5096662;28;20043;-72
2021/07/17 00:16:55;;;;;;;6.10;3.35;;;21.00;73.00;;;;;;5096261;28;20043;-72
2021/07/17 00:19:22;;;;;;;9.48;3.40;;;21.00;73.00;;;;;;5096419;28;20056;-72
2021/07/17 00:21:48;;;;;;;5.25;2.80;;;21.00;73.00;;;;;;5096380;28;20040;-72
2021/07/17 00:24:14;;;;;;;8.05;3.50;;;21.00;73.00;;;;;;5096532;28;20039;-73
2021/07/17 00:26:40;;;;;;;5.85;3.42;;;21.00;73.00;;;;;;5096019;28;20066;-73
2021/07/17 00:29:07;;;;;;;7.50;3.72;;;20.90;72.90;;;;;;5096536;28;20048;-72
2021/07/17 00:31:32;;;;;;;6.57;3.20;;;21.00;73.00;;;;;;5096032;28;20093;-72
2021/07/17 00:33:58;;;;;;;5.63;3.05;;;21.00;73.00;;;;;;5096208;28;20393;-72
2021/07/17 00:36:25;;;;;;;7.63;3.42;;;20.90;72.90;;;;;;5096009;28;20431;-72
2021/07/17 00:38:51;;;;;;;6.78;3.53;;;20.90;72.90;;;;;;5095781;28;20063;-72
2021/07/17 00:41:17;;;;;;;7.15;3.42;;;20.90;72.90;;;;;;5096289;28;20112;-72
2021/07/17 00:43:43;;;;;;;7.88;3.58;;;20.90;72.90;;;;;;5095717;28;20486;-72
2021/07/17 00:46:09;;;;;;;7.28;2.92;;;20.90;72.90;;;;;;5095934;28;20426;-72
2021/07/17 00:48:37;;;;;;;8.18;3.83;;;21.00;73.00;;;;;;5095967;28;20044;-72
2021/07/17 00:51:03;;;;;;;5.78;2.95;;;20.90;72.90;;;;;;5095910;28;20036;-72
2021/07/17 00:53:29;;;;;;;6.65;3.22;;;20.90;72.90;;;;;;5095621;28;20040;-72
2021/07/17 00:55:56;;;;;;;6.22;3.00;;;20.90;72.90;;;;;;5095280;28;20043;-73
2021/07/17 00:58:27;;;;;;;7.70;3.47;;;20.90;72.90;;;;;;5096047;28;20131;-72
2021/07/17 01:00:54;;;;;;;7.00;3.42;;;20.90;72.90;;;;;;5095661;28;20036;-72
2021/07/17 01:03:20;;;;;;;6.97;3.30;;;20.90;72.90;;;;;;5095854;28;20042;-73
2021/07/17 01:05:50;;;;;;;9.98;3.28;;;20.90;72.90;;;;;;5096104;28;20370;-72
2021/07/17 01:08:18;;;;;;;6.45;3.17;;;20.90;72.90;;;;;;5095200;28;20308;-72
2021/07/17 01:10:44;;;;;;;6.72;3.75;;;20.90;72.90;;;;;;5095862;28;20044;-72
2021/07/17 01:13:10;;;;;;;5.05;3.33;;;20.90;73.00;;;;;;5095736;28;20058;-73
2021/07/17 01:15:36;;;;;;;7.05;3.50;;;20.90;73.00;;;;;;5095483;28;20109;-72
2021/07/17 01:18:03;;;;;;;8.57;3.42;;;20.90;72.90;;;;;;5095139;28;20044;-72
2021/07/17 01:20:31;;;;;;;5.88;2.80;;;20.90;73.00;;;;;;5095654;28;20111;-72
2021/07/17 01:22:57;;;;;;;6.22;3.33;;;20.90;73.00;;;;;;5095478;28;20431;-72
2021/07/17 01:25:26;;;;;;;6.18;3.22;;;20.90;73.00;;;;;;5095310;28;20098;-72
2021/07/17 01:27:53;;;;;;;6.78;3.40;;;20.90;73.00;;;;;;5095668;28;20041;-72
2021/07/17 01:30:22;;;;;;;5.68;2.95;;;20.90;73.00;;;;;;5095390;28;20109;-72
2021/07/17 01:32:49;;;;;;;7.47;3.42;;;20.90;73.00;;;;;;5094966;28;20044;-72
2021/07/17 01:35:15;;;;;;;5.90;2.78;;;20.90;73.00;;;;;;5095539;28;20039;-72
2021/07/17 01:37:41;;;;;;;7.60;3.30;;;20.80;73.00;;;;;;5095090;28;20043;-72
2021/07/17 01:40:11;;;;;;;6.88;2.80;;;20.90;73.00;;;;;;5097175;28;20084;-73
2021/07/17 01:42:37;;;;;;;7.43;3.42;;;20.90;73.00;;;;;;5098980;28;20184;-72
2021/07/17 01:45:05;;;;;;;6.35;2.75;;;20.80;72.90;;;;;;5099494;28;20421;-72
2021/07/17 01:47:32;;;;;;;6.38;2.78;;;20.90;73.00;;;;;;5099185;28;20051;-72
2021/07/17 01:49:59;;;;;;;6.22;2.65;;;20.80;73.00;;;;;;5099543;28;20048;-72
2021/07/17 01:52:25;;;;;;;8.30;3.10;;;20.80;72.90;;;;;;5099493;28;20044;-73
2021/07/17 01:54:52;;;;;;;6.78;2.78;;;20.80;73.00;;;;;;5099141;28;20051;-72
2021/07/17 01:57:18;;;;;;;6.03;2.95;;;20.80;72.90;;;;;;5098960;28;20040;-72
2021/07/17 01:59:45;;;;;;;7.07;3.17;;;20.80;72.90;;;;;;5099650;28;20047;-73
2021/07/17 02:02:12;;;;;;;5.38;2.67;;;20.90;72.90;;;;;;5099399;28;20058;-72
2021/07/17 02:04:38;;;;;;;5.70;3.22;;;20.80;72.90;;;;;;5098814;28;20047;-72
2021/07/17 02:07:05;;;;;;;7.80;3.25;;;20.80;72.90;;;;;;5098620;28;20040;-73
2021/07/17 02:09:32;;;;;;;6.85;3.25;;;20.80;72.90;;;;;;5098499;28;20047;-72
2021/07/17 02:11:58;;;;;;;6.80;3.10;;;20.80;73.50;;;;;;5098951;28;20051;-72
2021/07/17 02:14:23;;;;;;;6.03;2.58;;;20.80;72.90;;;;;;5098955;28;20373;-72
2021/07/17 02:16:49;;;;;;;8.02;3.45;;;20.80;72.90;;;;;;5098789;28;20052;-72
2021/07/17 02:19:22;;;;;;;7.32;3.10;;;20.80;72.90;;;;;;5098555;28;20123;-72
2021/07/17 02:21:51;;;;;;;5.60;2.53;;;20.80;72.90;;;;;;5099137;28;20063;-72
2021/07/17 02:24:18;;;;;;;7.47;2.47;;;20.80;72.90;;;;;;5098868;28;20411;-72
2021/07/17 02:26:48;;;;;;;8.07;3.20;;;20.80;72.90;;;;;;5098620;28;20423;-72
2021/07/17 02:29:15;;;;;;;7.10;2.72;;;20.80;72.90;;;;;;5099119;28;20052;-72
2021/07/17 02:31:41;;;;;;;6.15;3.03;;;20.80;73.00;;;;;;5098233;28;20039;-73
2021/07/17 02:34:08;;;;;;;7.88;3.25;;;20.80;73.00;;;;;;5098232;28;20044;-72
2021/07/17 02:36:35;;;;;;;7.60;2.60;;;20.80;72.90;;;;;;5098834;28;20115;-72
2021/07/17 02:39:06;;;;;;;6.07;3.10;;;20.80;73.00;;;;;;5098988;28;20113;-73
2021/07/17 02:41:32;;;;;;;7.93;3.13;;;20.80;72.90;;;;;;5098355;28;20044;-72
2021/07/17 02:43:58;;;;;;;5.28;2.78;;;20.80;72.90;;;;;;5097957;28;20043;-72
2021/07/17 02:46:24;;;;;;;6.13;2.63;;;20.80;73.00;;;;;;5097659;28;20040;-72
2021/07/17 02:48:50;;;;;;;6.07;2.70;;;20.80;73.00;;;;;;5098712;28;20043;-72
2021/07/17 02:51:16;;;;;;;7.88;2.75;;;20.80;73.00;;;;;;5096664;28;20348;-72
2021/07/17 02:53:42;;;;;;;9.25;2.83;;;20.70;72.90;;;;;;5098367;28;20066;-72
2021/07/17 02:56:07;;;;;;;6.93;2.95;;;20.80;73.60;;;;;;5097811;28;20431;-72
2021/07/17 02:58:33;;;;;;;4.85;2.83;;;20.80;73.00;;;;;;5097596;28;20332;-72
2021/07/17 03:00:59;;;;;;;4.78;2.55;;;20.80;73.00;;;;;;5098104;28;20054;-72
2021/07/17 03:03:25;;;;;;;8.07;2.83;;;20.70;73.00;;;;;;5097767;28;20060;-73
2021/07/17 03:05:51;;;;;;;5.35;2.75;;;20.80;73.00;;;;;;5098207;28;20040;-72
2021/07/17 03:08:22;;;;;;;6.03;3.05;;;20.80;73.00;;;;;;5097816;28;20218;-72
2021/07/17 03:10:53;;;;;;;4.13;2.67;;;20.70;72.90;;;;;;5098362;28;20044;-72
2021/07/17 03:13:19;;;;;;;6.40;2.83;;;20.80;73.00;;;;;;5098037;28;20035;-72
2021/07/17 03:15:48;;;;;;;7.80;2.53;;;20.70;73.00;;;;;;5097150;28;20105;-72
2021/07/17 03:18:16;;;;;;;4.70;2.63;;;20.80;73.00;;;;;;5097709;28;20074;-72
2021/07/17 03:20:43;;;;;;;7.68;2.88;;;20.80;73.00;;;;;;5097377;28;20052;-72
2021/07/17 03:23:09;;;;;;;5.15;2.50;;;20.70;72.90;;;;;;5097518;28;20443;-73
2021/07/17 03:25:35;;;;;;;4.88;2.35;;;20.70;72.90;;;;;;5097608;28;20032;-72
2021/07/17 03:28:01;;;;;;;4.75;2.28;;;20.70;72.90;;;;;;5097189;28;20040;-72
2021/07/17 03:30:27;;;;;;;5.70;2.28;;;20.80;73.00;;;;;;5097598;28;20055;-72
2021/07/17 03:32:53;;;;;;;5.32;2.72;;;20.70;72.90;;;;;;5097148;28;20051;-72
2021/07/17 03:35:19;;;;;;;4.95;2.95;;;20.70;73.00;;;;;;5097435;28;20040;-73
2021/07/17 03:37:45;;;;;;;5.22;2.50;;;20.70;73.00;;;;;;5097124;28;20392;-73
2021/07/17 03:40:13;;;;;;;4.90;2.42;;;20.70;73.00;;;;;;5097383;28;20036;-72
2021/07/17 03:42:39;;;;;;;4.40;2.28;;;20.80;73.00;;;;;;5097079;28;20416;-72
2021/07/17 03:45:07;;;;;;;6.38;2.50;;;20.70;73.00;;;;;;5096929;28;20078;-72
2021/07/17 03:47:33;;;;;;;7.85;2.42;;;20.80;73.00;;;;;;5096967;28;20032;-72
2021/07/17 03:49:59;;;;;;;5.18;2.17;;;20.70;73.00;;;;;;5096944;28;20044;-72
2021/07/17 03:52:26;;;;;;;4.97;2.60;;;20.70;73.00;;;;;;5096891;28;20060;-73
2021/07/17 03:54:52;;;;;;;6.32;2.53;;;20.70;73.00;;;;;;5096573;28;20056;-72
2021/07/17 03:57:18;;;;;;;6.88;2.95;;;20.70;73.00;;;;;;5096798;28;20308;-72
2021/07/17 03:59:44;;;;;;;6.07;2.55;;;20.70;73.00;;;;;;5096755;28;20040;-72
2021/07/17 04:02:10;;;;;;;5.13;2.28;;;20.70;73.00;;;;;;5096556;28;20040;-72
2021/07/17 04:04:40;;;;;;;4.97;2.35;;;20.70;73.00;;;;;;5096577;28;20165;-72
2021/07/17 04:07:06;;;;;;;5.72;2.55;;;20.70;73.00;;;;;;5079262;28;20093;-72
2021/07/17 04:09:32;;;;;;;4.80;2.03;;;20.70;73.10;;;;;;5096500;28;20044;-72
2021/07/17 04:11:57;;;;;;;5.65;2.47;;;20.70;73.10;;;;;;5096806;28;20055;-72
2021/07/17 04:14:23;;;;;;;6.55;2.50;;;20.70;73.10;;;;;;5096229;28;20044;-72
2021/07/17 04:16:49;;;;;;;5.78;2.15;;;20.70;73.10;;;;;;5096098;28;20064;-72
2021/07/17 04:19:15;;;;;;;6.40;2.65;;;20.70;73.10;;;;;;5096562;28;20040;-72
2021/07/17 04:21:41;;;;;;;5.53;2.35;;;20.70;73.10;;;;;;5096414;28;20051;-72
2021/07/17 04:24:08;;;;;;;4.70;2.35;;;20.70;73.10;;;;;;5097110;28;20127;-72
2021/07/17 04:26:34;;;;;;;5.72;2.55;;;20.70;73.10;;;;;;5095962;28;20059;-73
2021/07/17 04:28:59;;;;;;;4.28;2.17;;;20.70;73.10;;;;;;5095993;28;20042;-72
2021/07/17 04:31:25;;;;;;;5.93;2.35;;;20.70;73.10;;;;;;5096378;28;20040;-72
2021/07/17 04:33:51;;;;;;;5.88;2.47;;;20.70;73.10;;;;;;5096290;28;20040;-72
2021/07/17 04:36:17;;;;;;;4.28;1.88;;;20.70;73.00;;;;;;5095908;28;20048;-73
2021/07/17 04:38:43;;;;;;;5.60;2.40;;;20.70;73.10;;;;;;5096629;28;20044;-72
2021/07/17 04:41:08;;;;;;;5.25;2.20;;;20.70;73.10;;;;;;5095944;28;20108;-72
2021/07/17 04:43:34;;;;;;;6.20;2.65;;;20.70;73.10;;;;;;5095881;28;20462;-72
2021/07/17 04:46:00;;;;;;;5.30;2.47;;;20.70;73.00;;;;;;5096481;28;20384;-72
2021/07/17 04:48:26;;;;;;;5.22;2.47;;;20.70;73.10;;;;;;5095752;28;20458;-72
2021/07/17 04:50:52;;;;;;;5.93;2.55;;;20.70;73.10;;;;;;5095990;28;20068;-72
2021/07/17 04:53:18;;;;;;;5.80;2.42;;;20.70;73.10;;;;;;5096364;28;20116;-72
2021/07/17 04:55:44;;;;;;;4.68;2.00;;;20.70;73.10;;;;;;5095550;28;20055;-72
2021/07/17 04:58:10;;;;;;;5.45;2.42;;;20.70;73.10;;;;;;5095343;28;20040;-72
2021/07/17 05:00:36;;;;;;;4.63;1.80;;;20.70;73.10;;;;;;5095732;28;20048;-71
2021/07/17 05:03:01;;;;;;;4.47;2.38;;;20.70;73.10;;;;;;5095544;28;20044;-72
2021/07/17 05:05:27;;;;;;;6.60;2.22;;;20.70;73.10;;;;;;5095709;28;20451;-73
2021/07/17 05:07:54;;;;;;;4.95;2.25;;;20.70;73.10;;;;;;5095559;28;20071;-72
2021/07/17 05:10:22;;;;;;;3.88;2.00;;;20.70;73.10;;;;;;5095367;28;20460;-72
2021/07/17 05:12:48;;;;;;;4.32;1.90;;;20.70;73.10;;;;;;5096074;28;20044;-72
2021/07/17 05:15:15;;;;;;;5.03;2.22;;;20.70;73.10;;;;;;5094869;28;20419;-72
2021/07/17 05:17:41;;;;;;;3.15;1.65;;;20.70;73.10;;;;;;5095519;28;20111;-73
2021/07/17 05:20:08;;;;;;;5.38;1.83;;;20.70;73.10;;;;;;5095583;28;20435;-72
2021/07/17 05:22:35;;;;;;;3.08;1.90;;;20.60;73.00;;;;;;5095401;28;20063;-72
2021/07/17 05:25:03;;;;;;;4.88;2.17;;;20.70;73.10;;;;;;5095300;28;20113;-72
2021/07/17 05:27:29;;;;;;;4.55;2.30;;;20.70;73.10;;;;;;5095679;28;20044;-72
2021/07/17 05:29:55;;;;;;;4.68;2.00;;;20.70;73.10;;;;;;5095260;28;20358;-72
2021/07/17 05:32:20;;;;;;;6.45;2.22;;;20.70;73.10;;;;;;5095124;28;20044;-72
2021/07/17 05:34:46;;;;;;;4.22;2.03;;;20.70;73.10;;;;;;5095215;28;20051;-72
2021/07/17 05:37:12;;;;;;;4.07;1.80;;;20.70;73.10;;;;;;5095216;28;20115;-72
2021/07/17 05:39:38;;;;;;;4.10;1.73;;;20.70;73.00;;;;;;5095507;28;20044;-72
2021/07/17 05:42:05;;;;;;;6.00;2.03;;;20.70;73.00;;;;;;5095252;28;20036;-72
2021/07/17 05:44:31;;;;;;;4.25;2.17;;;20.70;73.00;;;;;;5095489;28;20048;-72
2021/07/17 05:46:57;;;;;;;4.15;2.00;;;20.70;73.00;;;;;;5095354;28;20098;-72
2021/07/17 05:49:23;;;;;;;5.70;1.92;;;20.70;72.90;;;;;;5095256;28;20052;-72
2021/07/17 05:51:49;;;;;;;4.18;2.10;;;20.70;73.00;;;;;;5094939;28;20036;-72
2021/07/17 05:54:15;;;;;;;5.13;2.00;;;20.70;72.90;;;;;;5095428;28;20048;-72
2021/07/17 05:56:41;;;;;;;5.38;1.85;;;20.70;72.90;;;;;;5095109;28;20101;-72
2021/07/17 05:59:07;;;;;;;3.85;1.92;;;20.70;72.90;;;;;;5094914;28;20048;-72
2021/07/17 06:01:33;;;;;;;4.32;1.83;;;20.70;72.90;;;;;;5095032;28;20044;-72
2021/07/17 06:04:03;;;;;;;4.90;1.80;;;20.70;73.00;;;;;;5095139;28;20075;-73
2021/07/17 06:06:29;;;;;;;4.13;1.83;;;20.70;73.50;;;;;;5094600;28;20086;-72
2021/07/17 06:08:55;;;;;;;2.85;1.95;;;20.70;72.90;;;;;;5094638;28;20036;-72
2021/07/17 06:11:21;;;;;;;4.05;1.92;;;20.70;72.90;;;;;;5094650;28;20051;-72
2021/07/17 06:13:47;;;;;;;2.92;1.48;;;20.70;72.90;;;;;;5095223;28;20058;-72
2021/07/17 06:16:13;;;;;;;5.40;2.08;;;20.80;72.90;;;;;;5095120;28;20044;-72
2021/07/17 06:18:39;;;;;;;4.53;2.00;;;20.70;72.80;;;;;;5094810;28;20066;-72
2021/07/17 06:21:05;;;;;;;3.92;1.92;;;20.70;72.80;;;;;;5094525;28;20493;-72
2021/07/17 06:23:31;;;;;;;5.07;1.70;;;20.80;72.90;;;;;;5094524;28;20072;-72
2021/07/17 06:25:57;;;;;;;3.50;1.83;;;20.80;72.90;;;;;;5095759;28;20043;-72
2021/07/17 06:28:23;;;;;;;4.40;1.95;;;20.70;72.80;;;;;;5098690;28;20101;-72
2021/07/17 06:30:49;;;;;;;7.30;2.47;;;20.80;72.80;;;;;;5098416;28;20401;-72
2021/07/17 06:33:15;;;;;;;5.13;2.17;;;20.80;72.80;;;;;;5098504;28;20040;-72
2021/07/17 06:35:40;;;;;;;4.35;2.13;;;20.80;72.80;;;;;;5098152;28;20068;-72
2021/07/17 06:38:06;;;;;;;4.22;1.75;;;20.80;72.80;;;;;;5098470;28;20040;-72
2021/07/17 06:40:32;;;;;;;3.53;2.17;;;20.90;72.80;;;;;;5098442;28;20036;-72
2021/07/17 06:42:58;;;;;;;2.83;1.73;;;20.80;72.80;;;;;;5098530;28;20419;-72
2021/07/17 06:45:24;;;;;;;5.90;2.25;;;20.90;72.80;;;;;;5098407;28;20500;-72
2021/07/17 06:47:50;;;;;;;3.60;1.80;;;20.90;72.80;;;;;;5098317;28;20093;-72
2021/07/17 06:50:18;;;;;;;4.88;2.10;;;20.90;72.80;;;;;;5097965;28;20052;-71
2021/07/17 06:52:45;;;;;;;4.88;2.72;;;20.90;72.90;;;;;;5098055;28;20104;-72
2021/07/17 06:55:11;;;;;;;3.88;1.73;;;20.90;72.90;;;;;;5098110;28;20047;-72
2021/07/17 06:57:38;;;;;;;4.63;2.17;;;20.90;72.90;;;;;;5097940;28;20047;-72
2021/07/17 07:00:09;;;;;;;5.80;2.10;;;21.00;73.00;;;;;;5097952;28;20044;-72
2021/07/17 07:02:36;;;;;;;4.43;2.22;;;21.00;73.00;;;;;;5098559;28;20040;-72
2021/07/17 07:05:02;;;;;;;3.20;1.60;;;21.00;73.00;;;;;;5097548;28;20058;-72
2021/07/17 07:07:28;;;;;;;4.88;1.90;;;21.00;73.00;;;;;;5097768;28;20047;-72
2021/07/17 07:09:54;;;;;;;2.65;1.80;;;21.00;73.00;;;;;;5097690;28;20048;-72
2021/07/17 07:12:19;;;;;;;4.35;1.95;;;21.00;73.00;;;;;;5098214;28;20035;-72
2021/07/17 07:14:45;;;;;;;4.75;2.00;;;21.00;73.00;;;;;;5097811;28;20040;-72
2021/07/17 07:17:11;;;;;;;4.80;1.98;;;21.10;73.10;;;;;;5098295;28;20039;-72
2021/07/17 07:19:37;;;;;;;3.28;1.63;;;21.10;73.10;;;;;;5097889;28;20032;-72
2021/07/17 07:22:04;;;;;;;5.28;1.90;;;21.10;73.10;;;;;;5097436;28;20110;-71
2021/07/17 07:24:30;;;;;;;4.18;1.85;;;21.10;73.10;;;;;;5097342;28;20056;-72
2021/07/17 07:26:57;;;;;;;4.85;2.15;;;21.10;73.10;;;;;;5098153;28;20072;-72
2021/07/17 07:29:24;;;;;;;4.72;1.83;;;21.10;73.20;;;;;;5096800;28;20040;-72
2021/07/17 07:31:53;;;;;;;5.82;2.30;;;21.10;73.10;;;;;;5097962;28;20048;-72
2021/07/17 07:34:20;;;;;;;4.95;1.90;;;21.10;73.20;;;;;;5097706;28;20047;-72
2021/07/17 07:36:49;;;;;;;4.72;2.30;;;21.20;73.20;;;;;;5097146;28;20039;-72
2021/07/17 07:39:15;;;;;;;4.38;1.90;;;21.10;73.10;;;;;;5096772;28;20036;-72
2021/07/17 07:41:41;;;;;;;4.03;1.63;;;21.20;73.20;;;;;;5097208;28;20070;-72
2021/07/17 07:44:06;;;;;;;4.65;2.10;;;21.20;73.20;;;;;;5097475;28;20043;-73
2021/07/17 07:46:34;;;;;;;4.68;2.25;;;21.20;73.20;;;;;;5097371;28;20039;-72
2021/07/17 07:49:02;;;;;;;5.95;1.92;;;21.20;73.20;;;;;;5096788;28;20036;-72
2021/07/17 07:51:29;;;;;;;4.57;2.30;;;21.20;73.20;;;;;;5096982;28;20052;-72
2021/07/17 07:53:55;;;;;;;3.60;1.70;;;21.20;73.20;;;;;;5097011;28;20043;-72
2021/07/17 07:56:21;;;;;;;5.65;2.22;;;21.20;73.80;;;;;;5096752;28;20043;-72
2021/07/17 07:58:47;;;;;;;3.15;1.63;;;21.20;73.20;;;;;;5096710;28;20036;-72
2021/07/17 08:01:13;;;;;;;3.47;1.75;;;21.30;73.20;;;;;;5096240;28;20043;-72
2021/07/17 08:03:38;;;;;;;5.28;1.92;;;21.30;73.30;;;;;;5096972;28;20036;-72
2021/07/17 08:06:04;;;;;;;3.08;1.70;;;21.30;73.30;;;;;;5096649;28;20376;-72
2021/07/17 08:08:30;;;;;;;3.08;1.73;;;21.30;73.30;;;;;;5097184;28;20105;-72
2021/07/17 08:10:56;;;;;;;4.15;2.17;;;21.30;73.30;;;;;;5096881;28;20496;-72
2021/07/17 08:13:22;;;;;;;4.32;2.22;;;21.30;73.30;;;;;;5096381;28;20439;-72
2021/07/17 08:15:50;;;;;;;5.45;2.17;;;21.30;73.30;;;;;;5095991;28;20050;-72
2021/07/17 08:18:16;;;;;;;4.45;1.98;;;21.30;73.30;;;;;;5096826;28;20123;-71
2021/07/17 08:20:43;;;;;;;5.05;1.95;;;21.30;73.20;;;;;;5096209;28;20094;-71
2021/07/17 08:23:09;;;;;;;3.92;2.10;;;21.30;73.20;;;;;;5096382;28;20036;-72
2021/07/17 08:25:35;;;;;;;3.67;1.63;;;21.30;73.20;;;;;;5096408;28;20039;-72
2021/07/17 08:28:02;;;;;;;4.03;1.73;;;21.40;73.30;;;;;;5096370;28;20119;-72
2021/07/17 08:30:28;;;;;;;3.78;1.80;;;21.40;73.30;;;;;;5096437;28;20059;-72
2021/07/17 08:32:54;;;;;;;2.55;1.70;;;21.40;73.30;;;;;;5096302;28;20075;-72
2021/07/17 08:35:21;;;;;;;2.33;1.38;;;21.40;73.30;;;;;;5096906;28;20040;-72
2021/07/17 08:37:47;;;;;;;3.75;1.50;;;21.40;73.30;;;;;;5096100;28;20036;-72
2021/07/17 08:40:12;;;;;;;3.67;1.90;;;21.40;73.30;;;;;;5096192;28;20051;-72
2021/07/17 08:42:44;;;;;;;4.30;1.80;;;21.40;73.30;;;;;;5096039;28;20044;-72
2021/07/17 08:45:11;;;;;;;4.68;1.75;;;21.40;73.20;;;;;;5096015;28;20123;-72
2021/07/17 08:47:41;;;;;;;3.47;1.48;;;21.40;73.30;;;;;;5096147;28;20135;-72
2021/07/17 08:50:18;;;;;;;2.65;1.63;;;21.40;73.20;;;;;;5094810;28;20377;-72
2021/07/17 08:52:44;;;;;;;5.38;1.70;;;21.40;73.30;;;;;;5095419;28;20050;-72
2021/07/17 08:55:11;;;;;;;3.03;1.70;;;21.40;73.20;;;;;;5095506;28;20396;-72
2021/07/17 08:57:39;;;;;;;5.25;1.60;;;21.40;73.20;;;;;;5095451;28;20071;-72
2021/07/17 09:00:14;;;;;;;3.63;1.52;;;21.40;73.20;;;;;;5095665;28;20040;-72
2021/07/17 09:02:43;;;;;;;3.28;1.60;;;21.40;73.10;;;;;;5095933;28;20160;-72
2021/07/17 09:05:13;;;;;;;3.53;1.40;;;21.50;73.80;;;;;;5095730;28;20448;-72
2021/07/17 09:07:40;;;;;;;4.78;1.77;;;21.50;73.10;;;;;;5095646;28;20114;-72
2021/07/17 09:10:28;;;;;;;3.70;2.03;;;21.50;73.10;;;;;;5095861;28;20173;-72
2021/07/17 09:13:20;;;;;;;4.20;1.30;;;21.50;73.10;;;;;;5095370;28;20067;-72
2021/07/17 09:15:49;;;;;;;4.20;1.70;;;21.50;73.10;;;;;;5095726;28;20040;-73
2021/07/17 09:18:28;;;;;;;3.95;1.50;;;21.50;73.10;;;;;;5095168;28;20071;-72
2021/07/17 09:21:01;;;;;;;5.07;1.60;;;21.50;73.10;;;;;;5095556;28;20098;-72
2021/07/17 09:23:30;;;;;;;;;;;21.50;73.10;;;;;;5096012;28;20044;-72
2021/07/17 09:25:57;;;;;;;3.78;1.50;;;21.50;73.00;;;;;;5095353;28;19916;-72
2021/07/17 09:28:29;;;;;;;3.60;1.10;;;21.50;73.10;;;;;;5095289;28;20122;-73
2021/07/17 09:30:58;;;;;;;3.80;1.40;;;21.50;73.10;;;;;;5095132;28;20419;-72
2021/07/17 09:33:24;;;;;;;3.53;1.40;;;21.50;73.10;;;;;;5095185;28;20040;-72
2021/07/17 09:35:52;;;;;;;2.63;1.42;;;21.50;73.10;;;;;;5095353;28;20068;-72
2021/07/17 09:38:20;;;;;;;2.20;1.30;;;21.50;73.00;;;;;;5094850;28;20055;-72
2021/07/17 09:40:53;;;;;;;3.75;1.58;;;21.60;73.10;;;;;;5095197;28;20044;-73
2021/07/17 09:43:45;;;;;;;2.92;1.58;;;21.60;73.10;;;;;;5095221;28;20063;-72
2021/07/17 09:46:16;;;;;;;3.03;1.60;;;21.60;72.90;;;;;;5090732;28;20431;-72
2021/07/17 09:49:03;;;;;;;3.72;1.58;;;21.60;73.00;;;;;;5095473;28;20043;-72
2021/07/17 09:51:31;;;;;;;1.88;1.00;;;21.60;73.00;;;;;;5095273;28;20391;-72
2021/07/17 09:54:01;;;;;;;2.42;1.30;;;21.60;73.00;;;;;;5095217;28;20051;-72
2021/07/17 09:56:33;;;;;;;3.50;1.52;;;21.60;72.90;;;;;;5095106;28;20071;-72
2021/07/17 09:59:00;;;;;;;3.65;1.40;;;21.60;72.90;;;;;;5095023;28;20044;-72
2021/07/17 10:01:32;;;;;;;3.53;1.40;;;21.60;72.90;;;;;;5097358;28;20059;-72
2021/07/17 10:04:02;;;;;;;2.42;1.23;;;21.60;72.90;;;;;;5098975;28;20401;-72
2021/07/17 10:06:42;;;;;;;2.95;1.30;;;21.60;72.90;;;;;;5098812;28;20047;-72
2021/07/17 10:09:16;;;;;;;3.78;1.50;;;21.60;72.80;;;;;;5098917;28;20047;-73
2021/07/17 10:11:44;;;;;;;2.45;1.25;;;21.60;72.90;;;;;;5099556;28;20120;-73
2021/07/17 10:14:16;;;;;;;3.03;1.10;;;21.60;72.80;;;;;;5099482;28;20110;-73
2021/07/17 10:16:42;;;;;;;1.90;1.10;;;21.60;72.80;;;;;;5099040;28;20165;-72
2021/07/17 10:19:08;;;;;;;1.77;1.00;;;21.60;72.80;;;;;;5098603;28;20047;-72
2021/07/17 10:21:35;;;;;;;2.40;1.23;;;21.70;72.80;;;;;;5098758;28;20104;-72
2021/07/17 10:24:02;;;;;;;3.03;1.02;;;21.60;72.70;;;;;;5099256;28;20040;-72
2021/07/17 10:26:28;;;;;;;4.10;1.30;;;21.70;72.80;;;;;;5098660;28;20044;-72
2021/07/17 10:29:01;;;;;;;2.53;1.08;;;21.70;72.80;;;;;;5098163;28;20111;-72
2021/07/17 10:31:27;;;;;;;4.05;1.20;;;21.70;72.80;;;;;;5098158;28;20364;-72
2021/07/17 10:33:54;;;;;;;2.33;1.15;;;21.70;72.80;;;;;;5098475;28;20043;-72
2021/07/17 10:36:20;;;;;;;2.72;1.10;;;21.70;72.80;;;;;;5098499;28;20047;-72
2021/07/17 10:38:50;;;;;;;3.67;1.65;;;21.70;72.70;;;;;;5098485;28;20096;-72
2021/07/17 10:41:18;;;;;;;2.22;1.30;;;21.70;72.70;;;;;;5098398;28;20342;-72
2021/07/17 10:43:54;;;;;;;2.83;1.00;;;21.70;72.70;;;;;;5098556;28;20044;-72
2021/07/17 10:46:42;;;;;;;2.88;1.25;;;21.70;72.60;;;;;;5098154;28;20071;-72
2021/07/17 10:49:10;;;;;;;2.10;1.10;;;21.70;72.50;;;;;;5098302;28;20062;-73
2021/07/17 10:51:37;;;;;;;2.63;1.20;;;21.70;72.60;;;;;;5098144;28;20054;-72
2021/07/17 10:54:11;;;;;;;3.47;1.50;;;21.70;72.60;;;;;;5097993;28;20347;-72
2021/07/17 10:56:46;;;;;;;;;;;21.70;73.10;;;;;;5098798;28;20067;-72
2021/07/17 10:59:11;;;;;;;2.13;1.05;;;21.70;72.40;;;;;;5098056;28;20204;-72
2021/07/17 11:01:56;;;;;;;2.20;1.30;;;21.70;72.50;;;;;;5097998;28;20048;-72
2021/07/17 11:04:47;;;;;;;2.15;1.25;;;21.70;72.40;;;;;;5097789;28;20119;-73
2021/07/17 11:07:15;;;;;;;1.65;0.90;;;21.70;72.40;;;;;;5097585;28;20071;-73
2021/07/17 11:09:50;;;;;;;2.85;1.20;;;21.70;72.40;;;;;;5097737;28;20122;-72
2021/07/17 11:12:27;;;;;;;3.22;0.93;;;21.70;72.30;;;;;;5097032;28;20124;-72
2021/07/17 11:15:13;;;;;;;2.13;0.85;;;21.70;72.40;;;;;;5097667;28;20040;-72
2021/07/17 11:17:44;;;;;;;2.50;0.85;;;21.70;72.20;;;;;;5096873;28;20332;-72
2021/07/17 11:20:22;;;;;;;3.22;0.90;;;21.70;72.80;;;;;;5097591;28;20108;-72
2021/07/17 11:23:01;;;;;;;1.63;0.80;;;21.70;72.20;;;;;;5097576;28;20059;-72
2021/07/17 11:25:27;;;;;;;1.42;1.08;;;21.70;72.00;;;;;;5097910;28;20064;-72
2021/07/17 11:27:53;;;;;;;5.45;1.05;;;21.70;72.20;;;;;;5097283;28;20084;-72
2021/07/17 11:30:20;;;;;;;1.65;0.90;;;21.70;72.20;;;;;;5097203;28;20079;-72
2021/07/17 11:33:04;;;;;;;1.60;0.70;;;21.70;72.10;;;;;;5097506;28;20040;-72
2021/07/17 11:35:40;;;;;;;2.33;1.05;;;21.80;72.00;;;;;;5097142;28;20105;-73
2021/07/17 11:38:08;;;;;;;1.90;1.00;;;21.70;72.00;;;;;;5097414;28;20040;-72
2021/07/17 11:40:36;;;;;;;1.42;0.70;;;21.70;71.90;;;;;;5097035;28;20054;-72
2021/07/17 11:43:06;;;;;;;3.03;1.00;;;21.70;71.90;;;;;;5097279;28;20043;-72
2021/07/17 11:45:32;;;;;;;2.25;1.02;;;21.70;71.80;;;;;;5097760;28;20066;-72
2021/07/17 11:48:13;;;;;;;1.25;0.60;;;21.70;71.80;;;;;;5097319;28;20036;-72
2021/07/17 11:50:40;;;;;;;2.05;0.80;;;21.80;71.60;;;;;;5079335;28;20040;-72
2021/07/17 11:53:18;;;;;;;1.83;0.95;;;21.70;71.80;;;;;;5096922;28;20039;-72
2021/07/17 11:55:57;;;;;;;2.00;0.70;;;21.80;71.50;;;;;;5096680;28;20044;-72
2021/07/17 11:58:23;;;;;;;1.33;0.90;;;21.70;71.40;;;;;;5096982;28;20105;-72
2021/07/17 12:01:03;;;;;;;1.42;0.90;;;21.80;71.60;;;;;;5096968;28;20089;-72
2021/07/17 12:03:29;;;;;;;2.00;0.60;;;21.80;71.50;;;;;;5097044;28;20062;-72
2021/07/17 12:05:55;;;;;;;1.65;0.80;;;21.80;71.60;;;;;;5096552;28;20044;-72
2021/07/17 12:08:24;;;;;;;1.73;0.60;;;21.80;71.60;;;;;;5096656;28;20044;-72
2021/07/17 12:10:49;;;;;;;3.20;0.70;;;21.80;71.50;;;;;;5096823;28;20069;-72
2021/07/17 12:13:20;;;;;;;2.15;0.80;;;21.80;71.50;;;;;;5096680;28;20051;-72
2021/07/17 12:15:45;;;;;;;2.85;0.70;;;21.80;71.50;;;;;;5096690;28;20111;-72
2021/07/17 12:18:13;;;;;;;1.83;0.75;;;21.80;71.60;;;;;;5096277;28;20507;-72
2021/07/17 12:20:47;;;;;;;1.48;0.68;;;21.70;71.50;;;;;;5096797;28;20040;-72
2021/07/17 12:23:19;;;;;;;1.40;0.73;;;21.80;71.60;;;;;;5096293;28;20044;-72
2021/07/17 12:25:50;;;;;;;1.92;0.80;;;21.80;71.60;;;;;;5096418;28;20040;-72
2021/07/17 12:28:19;;;;;;;1.67;0.60;;;21.80;71.60;;;;;;5096049;28;20047;-73
2021/07/17 12:30:53;;;;;;;2.53;0.98;;;21.80;71.60;;;;;;5096289;28;20427;-72
2021/07/17 12:33:24;;;;;;;3.22;0.65;;;21.80;71.60;;;;;;5096809;28;20036;-72
2021/07/17 12:36:13;;;;;;;2.05;0.60;;;21.80;71.70;;;;;;5096412;28;20040;-72
2021/07/17 12:38:51;;;;;;;1.50;0.80;;;21.80;71.50;;;;;;5096083;28;20082;-73
2021/07/17 12:41:26;;;;;;;1.20;0.80;;;21.80;71.60;;;;;;5095910;28;20354;-73
2021/07/17 12:43:54;;;;;;;1.80;0.70;;;21.80;71.80;;;;;;5096019;28;20345;-72
2021/07/17 12:46:22;;;;;;;1.58;0.68;;;21.80;71.80;;;;;;5096059;28;20040;-72
2021/07/17 12:48:49;;;;;;;1.48;0.63;;;21.80;71.70;;;;;;5095323;28;20399;-72
2021/07/17 12:51:19;;;;;;;1.58;0.65;;;21.80;71.70;;;;;;5096026;28;20036;-72
2021/07/17 12:53:46;;;;;;;1.75;0.73;;;21.80;71.80;;;;;;5095924;28;20048;-72